Terminal Aerodrome Forecast
Issued by NWS

Current Version | Previous Version | Text Only | Print | Product List | Glossary On
Versions: 1 2 3 4 5 6 7 8 9 10 11 12 13 14 15 16 17 18 19 20 21 22 23 24 25 26 27 28 29 30 31 32
000
FTUS41 KCLE 231300 AAA
TAFFDY
TAF AMD
KFDY 231308Z 2313/2412 07005KT 1SM BR BKN004
     FM231400 07005KT 3SM BR BKN007
     FM231500 05007KT P6SM BKN018
     FM231800 05007KT P6SM BKN035
     FM240000 07005KT P6SM SCT040
     FM240500 07003KT 5SM BR SCT005
     FM241000 07003KT 2SM BR BKN005=

USA.gov is the U.S. government's official web portal to all federal, state and local government web resources and services.